Time;durP1;ratioP1;P1;durP2;ratioP2;P2;SDS_P1;SDS_P2;PMS_P1;PMS_P2;Temp;Humidity;BMP_temperature;BMP_pressure;BME280_temperature;BME280_humidity;BME280_pressure;Samples;Min_cycle;Max_cycle;Signal;HPM_P1;HPM_P2
2022/04/28 00:00:29;;;;;;;9.93;7.73;;;11.50;99.90;;;;;;5014557;28;20201;-73
2022/04/28 00:02:55;;;;;;;8.30;7.50;;;11.40;99.90;;;;;;5005060;28;20202;-73
2022/04/28 00:05:22;;;;;;;10.73;7.53;;;11.40;99.90;;;;;;5009827;28;20290;-76
2022/04/28 00:07:47;;;;;;;9.33;7.77;;;11.30;99.90;;;;;;5017184;28;20179;-73
2022/04/28 00:10:13;;;;;;;9.40;8.13;;;11.30;99.90;;;;;;5009872;28;20179;-73
2022/04/28 00:12:40;;;;;;;9.03;7.37;;;11.20;99.90;;;;;;5002376;28;20205;-72
2022/04/28 00:15:09;;;;;;;10.10;7.63;;;11.20;99.90;;;;;;5013527;28;20313;-74
2022/04/28 00:17:36;;;;;;;8.47;7.40;;;11.20;99.90;;;;;;5015807;28;20203;-75
2022/04/28 00:20:07;;;;;;;10.57;8.30;;;11.10;99.90;;;;;;5001993;28;20237;-72
2022/04/28 00:22:33;;;;;;;9.57;7.87;;;11.10;99.90;;;;;;5010894;28;20232;-73
2022/04/28 00:24:59;;;;;;;9.07;8.17;;;11.10;99.90;;;;;;5004910;28;20290;-73
2022/04/28 00:27:27;;;;;;;10.57;9.20;;;11.00;99.90;;;;;;5011947;28;20278;-72
2022/04/28 00:29:52;;;;;;;11.13;8.77;;;11.00;99.90;;;;;;5017892;28;20191;-73
2022/04/28 00:32:20;;;;;;;11.97;9.40;;;11.00;99.90;;;;;;5010020;28;20238;-73
2022/04/28 00:34:46;;;;;;;10.87;9.27;;;10.90;99.90;;;;;;5025299;28;20210;-71
2022/04/28 00:37:18;;;;;;;11.67;9.73;;;10.90;99.90;;;;;;5002687;28;20548;-73
2022/04/28 00:39:45;;;;;;;9.77;8.73;;;10.90;99.90;;;;;;5001532;28;20175;-71
2022/04/28 00:42:19;;;;;;;11.27;9.63;;;10.80;99.90;;;;;;5025603;28;20294;-73
2022/04/28 00:44:46;;;;;;;11.43;9.93;;;10.80;99.90;;;;;;5006114;28;20233;-73
2022/04/28 00:47:12;;;;;;;13.20;10.60;;;10.70;99.90;;;;;;5009654;28;20194;-70
2022/04/28 00:52:29;;;;;;;11.77;9.53;;;10.70;99.90;;;;;;5004280;28;20181;-72
2022/04/28 00:54:55;;;;;;;16.87;11.57;;;10.60;99.90;;;;;;5008767;28;20582;-72
2022/04/28 00:57:22;;;;;;;13.33;10.07;;;10.60;99.90;;;;;;5001980;28;20270;-72
2022/04/28 00:59:51;;;;;;;13.93;10.70;;;10.60;99.90;;;;;;5001824;28;20182;-71
2022/04/28 01:02:22;;;;;;;15.07;11.10;;;10.50;99.90;;;;;;5003870;28;20199;-73
2022/04/28 01:04:48;;;;;;;14.63;11.10;;;10.60;99.90;;;;;;5000516;28;20206;-70
2022/04/28 01:07:17;;;;;;;12.83;10.80;;;10.50;99.90;;;;;;5001295;28;20203;-73
2022/04/28 01:09:50;;;;;;;15.10;11.17;;;10.50;99.90;;;;;;5002050;28;20207;-73
2022/04/28 01:12:16;;;;;;;13.63;11.23;;;10.50;99.90;;;;;;5026350;28;20167;-72
2022/04/28 01:14:44;;;;;;;14.47;11.47;;;10.50;99.90;;;;;;5003626;28;20218;-69
2022/04/28 01:17:12;;;;;;;13.20;10.97;;;10.40;99.90;;;;;;5004203;28;20175;-73
2022/04/28 01:19:41;;;;;;;13.00;10.87;;;10.40;99.90;;;;;;5001331;28;21133;-70
2022/04/28 01:22:10;;;;;;;14.07;11.73;;;10.40;99.90;;;;;;5001845;28;20220;-72
2022/04/28 01:24:36;;;;;;;13.73;10.97;;;10.40;99.90;;;;;;5008665;28;20199;-73
2022/04/28 01:27:03;;;;;;;13.67;11.53;;;10.30;99.90;;;;;;5012094;28;20245;-71
2022/04/28 01:29:31;;;;;;;13.53;11.17;;;10.30;99.90;;;;;;5003003;28;20179;-69
2022/04/28 01:31:59;;;;;;;14.00;11.67;;;10.30;99.90;;;;;;5003788;28;20179;-74
2022/04/28 01:34:27;;;;;;;13.13;11.43;;;10.30;99.90;;;;;;5016321;28;20210;-71
2022/04/28 01:36:53;;;;;;;12.97;11.07;;;10.20;99.90;;;;;;5007112;28;20190;-73
2022/04/28 01:39:19;;;;;;;14.60;11.43;;;10.20;99.90;;;;;;5005505;28;20240;-70
2022/04/28 01:41:50;;;;;;;16.20;12.10;;;10.20;99.90;;;;;;5009519;28;20256;-72
2022/04/28 01:44:16;;;;;;;16.17;11.13;;;10.20;99.90;;;;;;5007898;28;20179;-71
2022/04/28 01:46:41;;;;;;;20.17;10.93;;;10.10;99.90;;;;;;5015582;28;20210;-71
2022/04/28 01:49:07;;;;;;;14.10;10.87;;;10.10;99.90;;;;;;5014563;28;20187;-71
2022/04/28 01:57:01;;;;;;;16.23;10.83;;;10.10;99.90;;;;;;5006207;28;20266;-72
2022/04/28 01:59:29;;;;;;;17.67;11.07;;;10.00;99.90;;;;;;5005111;28;20227;-71
2022/04/28 02:01:54;;;;;;;19.27;11.07;;;10.00;99.90;;;;;;5006324;28;20183;-73
2022/04/28 02:04:23;;;;;;;14.20;11.07;;;10.00;99.90;;;;;;5005226;28;21187;-72
2022/04/28 02:06:48;;;;;;;14.63;11.00;;;10.00;99.90;;;;;;5008281;28;20217;-73
2022/04/28 02:09:14;;;;;;;12.50;9.70;;;9.90;99.90;;;;;;5006548;28;20314;-70
2022/04/28 02:11:42;;;;;;;16.83;11.43;;;9.90;99.90;;;;;;5014234;28;20258;-73
2022/04/28 02:14:07;;;;;;;14.77;9.87;;;9.90;99.90;;;;;;5003379;28;20203;-72
2022/04/28 02:16:33;;;;;;;15.80;10.37;;;9.90;99.90;;;;;;5004691;28;20206;-72
2022/04/28 02:18:58;;;;;;;16.13;10.97;;;9.90;99.90;;;;;;5002277;28;20225;-73
2022/04/28 02:21:24;;;;;;;12.40;9.73;;;9.90;99.90;;;;;;5008056;28;20256;-71
2022/04/28 02:23:52;;;;;;;14.53;10.77;;;9.90;99.90;;;;;;5013686;28;20195;-72
2022/04/28 02:26:20;;;;;;;12.67;9.93;;;9.80;99.90;;;;;;5007619;28;20238;-69
2022/04/28 02:28:46;;;;;;;13.90;10.43;;;9.80;99.90;;;;;;5013721;28;20178;-72
2022/04/28 02:31:14;;;;;;;12.43;10.20;;;9.80;99.90;;;;;;5030616;28;20206;-72
2022/04/28 02:33:39;;;;;;;13.50;10.30;;;9.80;99.90;;;;;;5003869;28;20167;-72
2022/04/28 02:36:05;;;;;;;12.60;10.10;;;9.80;99.90;;;;;;5005494;28;20440;-72
2022/04/28 02:38:31;;;;;;;12.53;10.40;;;9.80;99.90;;;;;;5007881;28;20261;-70
2022/04/28 02:40:59;;;;;;;11.63;10.00;;;9.70;99.90;;;;;;5002425;28;20187;-71
2022/04/28 02:43:26;;;;;;;12.03;9.40;;;9.70;99.90;;;;;;5003958;28;20186;-71
2022/04/28 02:45:54;;;;;;;12.93;9.77;;;9.70;99.90;;;;;;5021160;28;20203;-70
2022/04/28 02:48:22;;;;;;;12.30;9.77;;;9.70;99.90;;;;;;5010701;28;20186;-71
2022/04/28 02:50:48;;;;;;;12.30;10.37;;;9.60;99.90;;;;;;5015097;28;20179;-71
2022/04/28 02:53:14;;;;;;;11.80;9.60;;;9.60;99.90;;;;;;5004513;28;20178;-70
2022/04/28 02:55:42;;;;;;;12.43;9.57;;;9.60;99.90;;;;;;5012606;28;20194;-70
2022/04/28 02:58:10;;;;;;;13.80;9.43;;;9.50;99.90;;;;;;5011553;28;20287;-71
2022/04/28 03:00:39;;;;;;;13.90;10.37;;;9.50;99.90;;;;;;5011479;28;20282;-71
2022/04/28 03:03:07;;;;;;;11.80;9.20;;;9.50;99.90;;;;;;5003858;28;20200;-71
2022/04/28 03:10:46;;;;;;;11.93;9.87;;;9.50;99.90;;;;;;5011298;28;20191;-70
2022/04/28 03:11:13;;;;;;;11.40;9.13;;;9.40;99.90;;;;;;5003651;28;20272;-71
2022/04/28 03:13:39;;;;;;;11.03;9.10;;;9.40;99.90;;;;;;5006022;28;20183;-69
2022/04/28 03:16:05;;;;;;;12.80;10.30;;;9.40;99.90;;;;;;5002371;28;20353;-70
2022/04/28 03:18:31;;;;;;;12.77;9.67;;;9.40;99.90;;;;;;5003005;28;20179;-70
2022/04/28 03:20:56;;;;;;;14.17;9.87;;;9.30;99.90;;;;;;5002447;28;20254;-70
2022/04/28 03:23:25;;;;;;;13.40;9.53;;;9.30;99.90;;;;;;5019853;28;20210;-70
2022/04/28 03:25:54;;;;;;;13.43;10.17;;;9.30;99.90;;;;;;5010278;28;20207;-70
2022/04/28 03:28:19;;;;;;;13.90;10.30;;;9.20;99.90;;;;;;5004800;28;20180;-70
2022/04/28 03:30:46;;;;;;;13.13;9.40;;;9.20;99.90;;;;;;5028134;28;20189;-70
2022/04/28 03:33:12;;;;;;;13.77;9.67;;;9.20;99.90;;;;;;5004709;28;20187;-71
2022/04/28 03:35:41;;;;;;;11.37;9.87;;;9.10;99.90;;;;;;5010536;28;20213;-71
2022/04/28 03:38:12;;;;;;;10.63;9.20;;;9.10;99.90;;;;;;5000627;28;20271;-73
2022/04/28 03:40:47;;;;;;;12.97;9.33;;;9.10;99.90;;;;;;5015092;28;20183;-71
2022/04/28 03:43:13;;;;;;;11.63;9.33;;;9.10;99.90;;;;;;5016548;28;20272;-73
2022/04/28 03:45:40;;;;;;;12.83;9.23;;;9.00;99.90;;;;;;5016593;28;20286;-70
2022/04/28 03:48:08;;;;;;;12.97;9.43;;;9.00;99.90;;;;;;5004389;28;20257;-71
2022/04/28 03:50:34;;;;;;;10.37;9.23;;;9.00;99.90;;;;;;5004195;28;20282;-71
2022/04/28 03:53:00;;;;;;;11.83;8.83;;;9.00;99.90;;;;;;5000944;28;20220;-70
2022/04/28 03:55:32;;;;;;;12.10;9.40;;;9.00;99.90;;;;;;5010334;28;20206;-71
2022/04/28 03:57:58;;;;;;;11.97;9.10;;;9.00;99.90;;;;;;5003853;28;20493;-71
2022/04/28 04:00:29;;;;;;;12.13;9.37;;;9.00;99.90;;;;;;5003194;28;20214;-71
2022/04/28 04:02:55;;;;;;;12.13;9.33;;;9.00;99.90;;;;;;5003058;28;20305;-70
2022/04/28 04:05:20;;;;;;;12.00;9.53;;;9.00;99.90;;;;;;5017957;28;20292;-71
2022/04/28 04:07:46;;;;;;;12.80;9.37;;;9.00;99.90;;;;;;5011554;28;20247;-70
2022/04/28 04:10:13;;;;;;;11.37;9.17;;;9.00;99.90;;;;;;5010484;28;20179;-71
2022/04/28 04:12:41;;;;;;;12.60;9.33;;;9.00;99.90;;;;;;5010181;28;20486;-70
2022/04/28 04:15:08;;;;;;;12.27;9.20;;;9.00;99.90;;;;;;5014999;28;20288;-70
2022/04/28 04:17:46;;;;;;;12.50;9.13;;;9.10;99.90;;;;;;5012435;28;20214;-71
2022/04/28 04:20:15;;;;;;;11.80;9.60;;;9.10;99.90;;;;;;5004718;28;20190;-71
2022/04/28 04:22:42;;;;;;;13.50;10.00;;;9.00;99.90;;;;;;5025903;28;20187;-71
2022/04/28 04:25:10;;;;;;;11.20;9.30;;;9.10;99.90;;;;;;5000542;28;20311;-71
2022/04/28 04:27:36;;;;;;;11.73;9.13;;;9.10;99.90;;;;;;5003434;28;20540;-70
2022/04/28 04:32:17;;;;;;;13.57;9.37;;;9.00;99.90;;;;;;5018485;28;20203;-71
2022/04/28 04:32:53;;;;;;;11.07;8.60;;;9.00;99.90;;;;;;5002742;28;20218;-70
2022/04/28 04:35:18;;;;;;;10.07;8.87;;;9.00;99.90;;;;;;5001581;28;20197;-70
2022/04/28 04:37:44;;;;;;;11.73;8.57;;;9.00;99.90;;;;;;5011649;28;20265;-71
2022/04/28 04:40:15;;;;;;;10.80;9.17;;;8.90;99.90;;;;;;5016549;28;20346;-70
2022/04/28 04:42:45;;;;;;;11.53;9.37;;;8.90;99.90;;;;;;5005112;28;20207;-70
2022/04/28 04:45:11;;;;;;;11.50;9.20;;;8.90;99.90;;;;;;5004587;28;20198;-70
2022/04/28 04:47:37;;;;;;;12.33;9.10;;;8.90;99.90;;;;;;5025521;28;20249;-70
2022/04/28 04:50:04;;;;;;;13.73;9.17;;;8.90;99.90;;;;;;5003586;28;20178;-69
2022/04/28 04:52:30;;;;;;;10.87;9.03;;;8.90;99.90;;;;;;5008257;28;20225;-70
2022/04/28 04:55:01;;;;;;;11.77;9.40;;;8.90;99.90;;;;;;5013180;28;20230;-70
2022/04/28 04:57:27;;;;;;;11.07;9.20;;;8.90;99.90;;;;;;5023582;28;20195;-70
2022/04/28 04:59:55;;;;;;;11.43;8.70;;;8.90;99.90;;;;;;5008852;28;20195;-69
2022/04/28 05:02:24;;;;;;;11.40;8.93;;;8.90;99.90;;;;;;5000828;28;20168;-70
2022/04/28 05:04:50;;;;;;;11.37;9.47;;;8.90;99.90;;;;;;5015335;28;20207;-71
2022/04/28 05:07:16;;;;;;;12.03;9.10;;;8.90;99.90;;;;;;5013599;28;20187;-70
2022/04/28 05:09:44;;;;;;;11.73;9.47;;;8.90;99.90;;;;;;5008896;28;20225;-69
2022/04/28 05:12:12;;;;;;;12.37;9.47;;;8.90;99.90;;;;;;5025104;28;20207;-68
2022/04/28 05:14:40;;;;;;;12.30;9.10;;;9.00;99.90;;;;;;5002842;28;20222;-70
2022/04/28 05:17:10;;;;;;;12.73;9.27;;;9.00;99.90;;;;;;4989621;28;20442;-72
2022/04/28 05:19:35;;;;;;;12.10;9.47;;;9.00;99.90;;;;;;4981045;28;20195;-69
2022/04/28 05:22:01;;;;;;;12.77;8.47;;;9.00;99.90;;;;;;4981451;28;20199;-67
2022/04/28 05:24:27;;;;;;;13.43;9.13;;;9.00;99.90;;;;;;4983101;28;20204;-69
2022/04/28 05:26:52;;;;;;;11.53;8.90;;;9.00;99.90;;;;;;4985666;28;20418;-68
2022/04/28 05:29:20;;;;;;;12.20;8.80;;;9.00;99.90;;;;;;4986975;28;20203;-72
2022/04/28 05:31:46;;;;;;;10.87;8.77;;;9.10;99.90;;;;;;4993753;28;20230;-70
2022/04/28 05:34:14;;;;;;;11.40;8.70;;;9.10;99.90;;;;;;4976526;28;20208;-71
2022/04/28 05:36:40;;;;;;;11.93;8.70;;;9.10;99.90;;;;;;4976511;28;20203;-71
2022/04/28 05:39:06;;;;;;;10.03;8.33;;;9.10;99.90;;;;;;4992793;28;20175;-73
2022/04/28 05:41:34;;;;;;;11.50;8.60;;;9.20;99.90;;;;;;4985487;28;20266;-71
2022/04/28 05:46:47;;;;;;;10.47;8.43;;;9.20;99.90;;;;;;4990921;28;20179;-70
2022/04/28 05:49:13;;;;;;;11.03;8.87;;;9.30;99.90;;;;;;4991013;28;20208;-71
2022/04/28 05:51:41;;;;;;;9.37;8.13;;;9.30;99.90;;;;;;4974796;28;20270;-71
2022/04/28 05:54:07;;;;;;;11.20;8.73;;;9.30;99.90;;;;;;4980134;28;20183;-70
2022/04/28 05:56:34;;;;;;;11.43;8.43;;;9.30;99.90;;;;;;4993313;28;20257;-69
2022/04/28 05:59:03;;;;;;;10.40;8.33;;;9.30;99.90;;;;;;4982739;28;20208;-70
2022/04/28 06:01:29;;;;;;;11.10;8.70;;;9.40;99.90;;;;;;4989153;28;20247;-71
2022/04/28 06:03:59;;;;;;;12.63;8.80;;;9.40;99.90;;;;;;4990935;28;20265;-71
2022/04/28 06:06:27;;;;;;;11.77;8.50;;;9.50;99.90;;;;;;4988901;28;20256;-71
2022/04/28 06:08:52;;;;;;;10.13;8.27;;;9.50;99.90;;;;;;4974097;28;20191;-71
2022/04/28 06:11:20;;;;;;;10.43;8.53;;;9.60;99.90;;;;;;4982357;28;20175;-71
2022/04/28 06:13:48;;;;;;;9.50;8.10;;;9.60;99.90;;;;;;4993237;28;20203;-71
2022/04/28 06:16:16;;;;;;;9.77;8.10;;;9.60;99.90;;;;;;4990697;28;20202;-71
2022/04/28 06:18:42;;;;;;;10.70;8.60;;;9.70;99.90;;;;;;5008616;28;20211;-71
2022/04/28 06:21:08;;;;;;;11.73;8.60;;;9.70;99.90;;;;;;4985879;28;20347;-71
2022/04/28 06:23:34;;;;;;;9.23;8.17;;;9.80;99.90;;;;;;4980054;28;20188;-70
2022/04/28 06:26:00;;;;;;;11.70;9.00;;;9.80;99.90;;;;;;4991076;28;20277;-71
2022/04/28 06:28:26;;;;;;;10.87;8.83;;;9.90;99.90;;;;;;4993913;28;20175;-71
2022/04/28 06:30:52;;;;;;;9.90;8.17;;;10.00;99.90;;;;;;4997184;28;20171;-71
2022/04/28 06:33:20;;;;;;;10.30;8.60;;;10.00;99.90;;;;;;4979954;28;20186;-71
2022/04/28 06:35:47;;;;;;;9.23;7.80;;;10.10;99.90;;;;;;4993103;28;20184;-70
2022/04/28 06:38:13;;;;;;;9.03;7.70;;;10.10;99.90;;;;;;4994427;28;20305;-70
2022/04/28 06:40:39;;;;;;;9.33;8.13;;;10.20;99.90;;;;;;4993172;28;20273;-72
2022/04/28 06:43:04;;;;;;;11.10;9.17;;;10.20;99.90;;;;;;4976947;28;20176;-71
2022/04/28 06:45:30;;;;;;;10.50;8.57;;;10.30;99.90;;;;;;4989893;28;20263;-67
2022/04/28 06:47:56;;;;;;;10.20;8.27;;;10.30;99.90;;;;;;4996648;28;20290;-71
2022/04/28 06:50:26;;;;;;;9.07;7.73;;;10.40;99.90;;;;;;4980970;28;20186;-70
2022/04/28 06:52:52;;;;;;;10.70;8.70;;;10.40;99.90;;;;;;4995042;28;20172;-69
2022/04/28 06:55:18;;;;;;;9.27;7.70;;;10.50;99.90;;;;;;4978293;28;20222;-70
2022/04/28 06:57:44;;;;;;;9.80;8.47;;;10.50;99.90;;;;;;4980516;28;20187;-69
2022/04/28 07:00:10;;;;;;;9.83;8.73;;;10.60;99.90;;;;;;4976966;28;20176;-70
2022/04/28 07:02:35;;;;;;;11.13;8.90;;;10.60;99.90;;;;;;4989701;28;20187;-70
2022/04/28 07:05:04;;;;;;;9.97;8.73;;;10.70;99.90;;;;;;4996299;28;20211;-70
2022/04/28 07:07:30;;;;;;;12.27;9.10;;;10.80;99.90;;;;;;4992884;28;20175;-70
2022/04/28 07:09:55;;;;;;;10.20;8.57;;;10.80;99.90;;;;;;4995567;28;20253;-70
2022/04/28 07:12:21;;;;;;;12.30;9.10;;;10.80;99.90;;;;;;5009861;28;20199;-70
2022/04/28 07:14:49;;;;;;;10.95;9.27;;;10.90;99.90;;;;;;4992281;28;20206;-71
2022/04/28 07:17:14;;;;;;;13.47;9.97;;;11.00;99.90;;;;;;4978935;28;20219;-70
2022/04/28 07:19:42;;;;;;;12.23;9.25;;;11.10;99.90;;;;;;4976361;28;20207;-71
2022/04/28 07:22:07;;;;;;;10.82;9.27;;;11.10;99.90;;;;;;4994157;28;20179;-70
2022/04/28 07:24:35;;;;;;;13.35;10.00;;;11.20;99.90;;;;;;4994865;28;20187;-70
2022/04/28 07:27:03;;;;;;;12.00;8.68;;;11.30;99.90;;;;;;4976737;28;20184;-69
2022/04/28 07:29:31;;;;;;;10.25;9.10;;;11.40;99.90;;;;;;4989163;28;20287;-70
2022/04/28 07:31:59;;;;;;;10.88;8.98;;;11.50;99.90;;;;;;4976183;28;20180;-70
2022/04/28 07:34:27;;;;;;;12.38;9.90;;;11.50;99.90;;;;;;4978999;28;20172;-70
2022/04/28 07:36:52;;;;;;;11.88;9.52;;;11.60;99.90;;;;;;4980499;28;20199;-70
2022/04/28 07:39:18;;;;;;;14.98;10.18;;;11.70;99.90;;;;;;4990810;28;20175;-68
2022/04/28 07:41:46;;;;;;;12.95;10.25;;;11.80;99.90;;;;;;4995156;28;20387;-70
2022/04/28 07:44:12;;;;;;;11.95;9.80;;;11.90;99.90;;;;;;4994841;28;20179;-70
2022/04/28 07:46:38;;;;;;;10.57;9.15;;;11.90;99.90;;;;;;4992746;28;20203;-71
2022/04/28 07:49:04;;;;;;;12.68;10.60;;;12.00;99.90;;;;;;4995476;28;20202;-69
2022/04/28 07:51:32;;;;;;;12.32;10.65;;;12.10;99.90;;;;;;4990460;28;20233;-70
2022/04/28 07:53:58;;;;;;;11.45;9.50;;;12.20;99.90;;;;;;4994897;28;20286;-69
2022/04/28 07:56:23;;;;;;;12.57;9.90;;;12.20;99.90;;;;;;4981310;28;20283;-70
2022/04/28 07:58:49;;;;;;;9.95;8.95;;;12.30;99.90;;;;;;4979137;28;20189;-70
2022/04/28 08:01:14;;;;;;;12.02;10.48;;;12.40;99.90;;;;;;4993764;28;20376;-70
2022/04/28 08:03:43;;;;;;;12.25;9.93;;;12.50;99.90;;;;;;4991346;28;20179;-69
2022/04/28 08:06:13;;;;;;;13.55;10.10;;;12.60;99.90;;;;;;4994779;28;20206;-70
2022/04/28 08:08:41;;;;;;;12.38;9.88;;;12.70;99.90;;;;;;5009211;28;20182;-71
2022/04/28 08:11:09;;;;;;;13.57;10.32;;;12.70;99.90;;;;;;4992863;28;20337;-71
2022/04/28 08:13:35;;;;;;;13.88;9.68;;;12.80;99.90;;;;;;4987276;28;20214;-70
2022/04/28 08:16:06;;;;;;;13.15;11.02;;;12.90;99.90;;;;;;4988245;28;20184;-71
2022/04/28 08:18:36;;;;;;;13.20;10.85;;;13.00;99.90;;;;;;4975194;28;20399;-69
2022/04/28 08:21:02;;;;;;;11.48;9.93;;;13.10;99.90;;;;;;4978136;28;20198;-70
2022/04/28 08:23:28;;;;;;;12.32;10.30;;;13.20;99.90;;;;;;4977813;28;20183;-71
2022/04/28 08:25:53;;;;;;;11.63;9.77;;;13.30;99.90;;;;;;4994439;28;20199;-70
2022/04/28 08:28:19;;;;;;;14.73;10.80;;;13.40;99.90;;;;;;4989905;28;20168;-70
2022/04/28 08:30:47;;;;;;;12.55;10.30;;;13.50;99.90;;;;;;4974930;28;20176;-70
2022/04/28 08:33:12;;;;;;;13.38;10.35;;;13.60;99.90;;;;;;4982562;28;20210;-69
2022/04/28 08:35:40;;;;;;;11.30;9.90;;;13.70;99.90;;;;;;4992381;28;20242;-71
2022/04/28 08:38:06;;;;;;;11.15;9.45;;;13.80;99.90;;;;;;4982735;28;20242;-70
2022/04/28 08:40:36;;;;;;;11.10;9.90;;;13.90;99.90;;;;;;4993379;28;20271;-71
2022/04/28 08:43:08;;;;;;;12.13;9.65;;;14.00;99.90;;;;;;4982686;28;20262;-71
2022/04/28 08:45:39;;;;;;;13.55;9.40;;;14.10;99.90;;;;;;4975217;28;20199;-70
2022/04/28 08:48:08;;;;;;;11.82;10.43;;;14.20;99.90;;;;;;4976729;28;20176;-70
2022/04/28 08:50:35;;;;;;;11.82;10.63;;;14.30;99.90;;;;;;4981325;28;20181;-70
2022/04/28 08:53:04;;;;;;;10.48;9.38;;;14.40;99.90;;;;;;4974992;28;20218;-71
2022/04/28 08:55:32;;;;;;;13.52;10.30;;;14.40;99.90;;;;;;4985781;28;20183;-70
2022/04/28 08:57:58;;;;;;;13.57;10.38;;;14.50;99.90;;;;;;4994148;28;20179;-70
2022/04/28 09:00:26;;;;;;;11.55;10.35;;;14.60;99.90;;;;;;4988149;28;20218;-71
2022/04/28 09:02:53;;;;;;;11.82;10.50;;;14.70;99.90;;;;;;4976608;28;20179;-71
2022/04/28 09:05:22;;;;;;;11.10;10.00;;;14.80;99.90;;;;;;4975950;28;20196;-70
2022/04/28 09:07:48;;;;;;;13.50;11.63;;;14.90;99.90;;;;;;4982839;28;20180;-70
2022/04/28 09:10:33;;;;;;;14.02;12.43;;;14.90;99.90;;;;;;4993546;28;20190;-70
2022/04/28 09:14:09;;;;;;;13.15;10.73;;;15.00;99.90;;;;;;5001316;28;20176;-68
2022/04/28 09:15:49;;;;;;;11.75;10.55;;;15.10;99.90;;;;;;4974813;28;20214;-71
2022/04/28 09:18:15;;;;;;;12.98;11.55;;;15.20;99.90;;;;;;4976955;28;20236;-70
2022/04/28 09:20:44;;;;;;;13.85;12.10;;;15.30;99.90;;;;;;4974879;28;20210;-70
2022/04/28 09:23:11;;;;;;;12.55;11.23;;;15.40;99.90;;;;;;4975332;28;20195;-72
2022/04/28 09:25:39;;;;;;;15.00;11.40;;;15.50;99.90;;;;;;4982224;28;20265;-70
2022/04/28 09:28:07;;;;;;;14.82;12.00;;;15.60;99.90;;;;;;4978178;28;20218;-72
2022/04/28 09:30:50;;;;;;;13.63;11.63;;;15.60;99.90;;;;;;4985561;28;20214;-70
2022/04/28 09:33:20;;;;;;;13.02;11.38;;;15.70;99.90;;;;;;4993879;28;20171;-71
2022/04/28 09:35:48;;;;;;;13.32;11.52;;;15.80;99.90;;;;;;4989435;28;20187;-71
2022/04/28 09:38:16;;;;;;;15.25;13.20;;;15.90;99.90;;;;;;4993585;28;20225;-68
2022/04/28 09:43:32;;;;;;;15.57;12.13;;;16.10;99.90;;;;;;4994224;28;20318;-71
2022/04/28 09:46:04;;;;;;;13.32;11.93;;;16.20;99.90;;;;;;4975431;28;20302;-69
2022/04/28 09:48:31;;;;;;;13.18;11.73;;;16.30;99.90;;;;;;4984540;28;20195;-71
2022/04/28 09:51:00;;;;;;;12.68;11.30;;;16.40;99.90;;;;;;4994088;28;20344;-71
2022/04/28 09:53:33;;;;;;;13.02;10.98;;;16.50;99.90;;;;;;4989861;28;20242;-70
2022/04/28 09:56:00;;;;;;;13.43;11.27;;;16.60;99.90;;;;;;4979073;28;20219;-69
2022/04/28 09:58:29;;;;;;;12.68;11.07;;;16.70;99.90;;;;;;4980811;28;20218;-70
2022/04/28 10:01:03;;;;;;;13.25;11.85;;;16.80;99.90;;;;;;4977916;28;20187;-70
2022/04/28 10:03:33;;;;;;;12.43;11.13;;;16.90;99.90;;;;;;4984080;28;20203;-70
2022/04/28 10:06:02;;;;;;;11.93;10.73;;;17.00;99.90;;;;;;4997187;28;20290;-71
2022/04/28 10:08:30;;;;;;;11.90;10.07;;;17.10;99.90;;;;;;4997137;28;20182;-70
2022/04/28 10:10:57;;;;;;;11.45;10.25;;;17.20;99.90;;;;;;4997116;28;20196;-70
2022/04/28 10:13:28;;;;;;;11.00;9.90;;;17.50;99.90;;;;;;4994813;28;20207;-71
2022/04/28 10:16:01;;;;;;;10.60;9.25;;;17.90;99.90;;;;;;5010055;28;20250;-71
2022/04/28 10:18:41;;;;;;;13.02;10.18;;;18.40;99.90;;;;;;4977678;28;20206;-71
2022/04/28 10:21:17;;;;;;;14.70;13.20;;;18.90;99.90;;;;;;4977581;28;20180;-72
2022/04/28 10:35:07;;;;;;;11.95;10.65;;;20.50;99.90;;;;;;4997652;28;20314;-72
2022/04/28 10:37:35;;;;;;;10.73;9.63;;;20.80;99.90;;;;;;4996562;28;20175;-71
2022/04/28 10:40:01;;;;;;;13.32;10.32;;;21.00;99.90;;;;;;4996733;28;20239;-71
2022/04/28 10:42:29;;;;;;;13.32;11.25;;;21.30;99.90;;;;;;4996226;28;20262;-71
2022/04/28 10:44:56;;;;;;;11.18;10.00;;;21.50;99.90;;;;;;4996543;28;20213;-71
2022/04/28 10:47:30;;;;;;;13.00;10.57;;;21.70;99.90;;;;;;4991343;28;20199;-71
2022/04/28 10:49:58;;;;;;;13.95;9.27;;;21.90;99.90;;;;;;4996353;28;20180;-71
2022/04/28 10:52:26;;;;;;;10.70;8.93;;;22.00;99.90;;;;;;4984735;28;20207;-68
2022/04/28 10:55:03;;;;;;;10.60;9.27;;;22.10;99.90;;;;;;4979435;28;20167;-69
2022/04/28 10:57:36;;;;;;;11.38;9.65;;;22.30;99.90;;;;;;4997023;28;20237;-68
2022/04/28 11:00:03;;;;;;;10.70;9.32;;;22.40;99.90;;;;;;4980944;28;20271;-67
2022/04/28 11:02:36;;;;;;;12.00;10.07;;;22.60;99.90;;;;;;4990366;28;20183;-69
2022/04/28 11:05:29;;;;;;;11.15;9.75;;;22.60;99.90;;;;;;4993159;28;20272;-67
2022/04/28 11:07:55;;;;;;;10.43;9.32;;;22.70;99.90;;;;;;4992821;28;20266;-66
2022/04/28 11:10:21;;;;;;;10.38;9.27;;;22.70;99.90;;;;;;4998783;28;20172;-68
2022/04/28 11:12:46;;;;;;;10.90;9.80;;;22.70;99.90;;;;;;4995772;28;20179;-67
2022/04/28 11:15:14;;;;;;;11.35;10.18;;;22.60;99.90;;;;;;4987243;28;20318;-67
2022/04/28 11:17:44;;;;;;;11.93;10.48;;;22.60;99.90;;;;;;4975970;28;20194;-66
2022/04/28 11:20:12;;;;;;;10.35;9.15;;;22.60;99.90;;;;;;4990513;28;20181;-68
2022/04/28 11:22:51;;;;;;;10.23;8.98;;;22.50;99.90;;;;;;4990783;28;20204;-67
2022/04/28 11:25:19;;;;;;;10.65;9.43;;;22.50;99.90;;;;;;4999496;28;20211;-67
2022/04/28 11:27:50;;;;;;;10.25;9.18;;;22.50;99.90;;;;;;4986690;28;20208;-68
2022/04/28 11:30:21;;;;;;;11.45;10.27;;;22.60;99.90;;;;;;4976204;28;20283;-67
2022/04/28 11:32:52;;;;;;;11.32;10.23;;;22.60;99.90;;;;;;4993650;28;20180;-67
2022/04/28 11:35:23;;;;;;;10.43;9.07;;;22.60;99.90;;;;;;4998280;28;20221;-67
2022/04/28 11:37:56;;;;;;;13.77;10.57;;;22.60;99.90;;;;;;5001071;28;20203;-67
2022/04/28 11:40:24;;;;;;;10.18;8.93;;;22.50;99.90;;;;;;4995130;28;20190;-67
2022/04/28 11:42:58;;;;;;;9.90;8.43;;;22.50;99.90;;;;;;4994496;28;20176;-67
2022/04/28 11:45:24;;;;;;;9.82;8.10;;;22.40;99.90;;;;;;4992712;28;20215;-67
2022/04/28 11:47:55;;;;;;;12.90;8.52;;;22.40;99.90;;;;;;4995490;28;20167;-66
2022/04/28 11:50:26;;;;;;;8.60;7.35;;;22.40;99.90;;;;;;4995644;28;20175;-68
2022/04/28 11:53:06;;;;;;;8.82;7.93;;;22.40;99.90;;;;;;4995130;28;20296;-66
2022/04/28 11:55:35;;;;;;;8.80;7.93;;;22.60;99.90;;;;;;4995198;28;20167;-68
2022/04/28 11:58:02;;;;;;;8.50;7.60;;;22.60;99.90;;;;;;5007008;28;20209;-67
2022/04/28 12:00:28;;;;;;;11.77;8.93;;;22.70;99.90;;;;;;4995960;28;20176;-68
2022/04/28 12:02:56;;;;;;;8.57;7.65;;;22.80;99.90;;;;;;4975303;28;20202;-68
2022/04/28 12:05:25;;;;;;;11.00;8.88;;;22.90;99.90;;;;;;4995957;28;20191;-66
2022/04/28 12:07:53;;;;;;;8.80;7.50;;;23.00;99.90;;;;;;4991819;28;20238;-67
2022/04/28 12:15:58;;;;;;;8.20;7.25;;;23.20;99.90;;;;;;4975293;28;20202;-67
2022/04/28 12:21:21;;;;;;;11.18;8.23;;;23.40;99.90;;;;;;4976230;28;20270;-67
2022/04/28 12:23:58;;;;;;;8.77;7.32;;;23.40;99.90;;;;;;4976997;28;20219;-68
2022/04/28 12:26:24;;;;;;;8.70;7.35;;;23.40;99.90;;;;;;4992765;28;20210;-67
2022/04/28 12:29:06;;;;;;;8.13;7.05;;;23.40;99.90;;;;;;4994373;28;20194;-67
2022/04/28 12:31:31;;;;;;;6.68;6.00;;;23.50;99.90;;;;;;5002672;28;20485;-68
2022/04/28 12:33:58;;;;;;;7.68;5.95;;;23.60;99.90;;;;;;5014161;28;20262;-68
2022/04/28 12:36:24;;;;;;;7.10;6.25;;;23.70;99.90;;;;;;5000601;28;20178;-67
2022/04/28 12:38:56;;;;;;;6.97;5.90;;;23.90;99.90;;;;;;4995554;28;20178;-67
2022/04/28 12:41:30;;;;;;;8.38;6.32;;;24.10;99.90;;;;;;4989149;28;20191;-68
2022/04/28 12:43:58;;;;;;;6.85;5.75;;;24.20;99.90;;;;;;4994775;28;20197;-68
2022/04/28 12:46:37;;;;;;;7.43;5.82;;;24.30;99.90;;;;;;5013907;28;20273;-67
2022/04/28 12:49:07;;;;;;;7.97;7.13;;;24.40;99.90;;;;;;5013567;28;20171;-67
2022/04/28 12:51:52;;;;;;;7.90;6.65;;;24.50;99.90;;;;;;4999763;28;20199;-68
2022/04/28 12:54:25;;;;;;;9.77;7.55;;;24.50;94.00;;;;;;4994029;28;20191;-68
2022/04/28 12:57:04;;;;;;;10.20;7.68;;;24.50;99.90;;;;;;4989167;28;20180;-67
2022/04/28 12:59:37;;;;;;;7.50;6.43;;;24.50;98.60;;;;;;4978537;28;20250;-67
2022/04/28 13:02:06;;;;;;;8.95;7.03;;;24.40;99.90;;;;;;4979049;28;20176;-68
2022/04/28 13:04:39;;;;;;;8.48;6.53;;;24.40;99.90;;;;;;4993708;28;20199;-67
2022/04/28 13:07:08;;;;;;;8.40;6.47;;;24.30;96.00;;;;;;4994208;28;20190;-65
2022/04/28 13:09:36;;;;;;;8.50;6.50;;;24.20;99.80;;;;;;4993752;28;20179;-67
2022/04/28 13:12:04;;;;;;;8.38;6.50;;;24.20;99.50;;;;;;4993931;28;20199;-67
2022/04/28 13:14:32;;;;;;;8.30;6.25;;;24.20;99.90;;;;;;4993616;28;20225;-67
2022/04/28 13:16:58;;;;;;;8.68;6.85;;;24.20;99.90;;;;;;4987391;28;20242;-68
2022/04/28 13:19:24;;;;;;;7.57;6.20;;;24.10;99.90;;;;;;4974205;28;20204;-67